createdAt,value
2022-09-10T00:01:36.817Z,14.70
2022-09-10T00:04:10.883Z,14.69
2022-09-10T00:06:39.381Z,14.68
2022-09-10T00:09:08.730Z,14.68
2022-09-10T00:11:39.066Z,14.66
2022-09-10T00:14:11.996Z,14.66
2022-09-10T00:16:40.573Z,14.66
2022-09-10T00:19:09.075Z,14.65
2022-09-10T00:21:37.503Z,14.65
2022-09-10T00:24:06.677Z,14.64
2022-09-10T00:26:42.275Z,14.64
2022-09-10T00:29:16.918Z,14.63
2022-09-10T00:31:45.684Z,14.62
2022-09-10T00:34:14.293Z,14.61
2022-09-10T00:36:43.753Z,14.62
2022-09-10T00:39:14.096Z,14.63
2022-09-10T00:41:45.475Z,14.63
2022-09-10T00:44:51.311Z,14.63
2022-09-10T00:47:24.435Z,14.62
2022-09-10T00:49:58.201Z,14.61
2022-09-10T00:52:28.785Z,14.61
2022-09-10T00:54:58.755Z,14.60
2022-09-10T00:57:29.095Z,14.60
2022-09-10T01:00:01.895Z,14.61
2022-09-10T01:02:30.457Z,14.61
2022-09-10T01:05:00.054Z,14.60
2022-09-10T01:07:30.279Z,14.60
2022-09-10T01:10:01.100Z,14.60
2022-09-10T01:12:50.601Z,14.61
2022-09-10T01:15:30.311Z,14.64
2022-09-10T01:18:11.007Z,14.65
2022-09-10T01:21:14.661Z,14.66
2022-09-10T01:24:43.759Z,14.66
2022-09-10T01:27:29.054Z,14.67
2022-09-10T01:30:05.817Z,14.68
2022-09-10T01:32:44.502Z,14.69
2022-09-10T01:35:17.379Z,14.69
2022-09-10T01:37:51.308Z,14.69
2022-09-10T01:40:29.025Z,14.70
2022-09-10T01:43:06.503Z,14.71
2022-09-10T01:45:49.079Z,14.71
2022-09-10T01:48:34.633Z,14.71
2022-09-10T01:51:10.332Z,14.70
2022-09-10T01:53:55.890Z,14.70
2022-09-10T01:56:37.583Z,14.71
2022-09-10T01:59:16.100Z,14.72
2022-09-10T02:01:48.721Z,14.71
2022-09-10T02:04:19.409Z,14.69
2022-09-10T02:06:50.604Z,14.68
2022-09-10T02:09:19.740Z,14.69
2022-09-10T02:11:50.251Z,14.69
2022-09-10T02:14:35.414Z,14.68
2022-09-10T02:17:14.637Z,14.67
2022-09-10T02:19:45.674Z,14.66
2022-09-10T02:22:14.753Z,14.65
2022-09-10T02:24:43.995Z,14.65
2022-09-10T02:27:13.928Z,14.64
2022-09-10T02:29:42.577Z,14.64
2022-09-10T02:32:11.316Z,14.64
2022-09-10T02:34:39.718Z,14.64
2022-09-10T02:37:08.274Z,14.63
2022-09-10T02:39:37.881Z,14.63
2022-09-10T02:42:07.218Z,14.62
2022-09-10T02:44:36.333Z,14.61
2022-09-10T02:47:05.674Z,14.60
2022-09-10T02:49:34.453Z,14.58
2022-09-10T02:52:03.959Z,14.58
2022-09-10T02:54:32.792Z,14.58
2022-09-10T02:57:01.179Z,14.57
2022-09-10T02:59:30.322Z,14.56
2022-09-10T03:01:59.297Z,14.56
2022-09-10T03:04:28.063Z,14.56
2022-09-10T03:06:56.473Z,14.58
2022-09-10T03:09:28.334Z,14.59
2022-09-10T03:11:56.881Z,14.59
2022-09-10T03:14:25.381Z,14.61
2022-09-10T03:16:54.674Z,14.62
2022-09-10T03:19:26.065Z,14.61
2022-09-10T03:21:54.420Z,14.61
2022-09-10T03:24:24.612Z,14.61
2022-09-10T03:26:53.203Z,14.59
2022-09-10T03:29:23.324Z,14.59
2022-09-10T03:31:51.984Z,14.59
2022-09-10T03:34:21.395Z,14.60
2022-09-10T03:36:50.857Z,14.61
2022-09-10T03:39:19.258Z,14.60
2022-09-10T03:41:47.803Z,14.60
2022-09-10T03:44:16.729Z,14.60
2022-09-10T03:46:48.011Z,14.60
2022-09-10T03:49:18.127Z,14.60
2022-09-10T03:51:47.892Z,14.60
2022-09-10T03:54:17.182Z,14.58
2022-09-10T03:56:45.924Z,14.58
2022-09-10T03:59:14.381Z,14.58
2022-09-10T04:01:44.640Z,14.58
2022-09-10T04:04:14.335Z,14.57
2022-09-10T04:06:43.956Z,14.58
2022-09-10T04:09:12.515Z,14.58
2022-09-10T04:11:41.762Z,14.58
2022-09-10T04:14:10.453Z,14.59
2022-09-10T04:16:41.426Z,14.60
2022-09-10T04:19:12.535Z,14.61
2022-09-10T04:21:41.450Z,14.62
2022-09-10T04:24:12.121Z,14.63
2022-09-10T04:26:40.582Z,14.63
2022-09-10T04:29:09.001Z,14.61
2022-09-10T04:31:38.262Z,14.60
2022-09-10T04:34:12.303Z,14.59
2022-09-10T04:36:41.068Z,14.59
2022-09-10T04:39:10.416Z,14.58
2022-09-10T04:41:39.706Z,14.56
2022-09-10T04:44:09.283Z,14.56
2022-09-10T04:46:38.129Z,14.56
2022-09-10T04:49:10.770Z,14.56
2022-09-10T04:51:39.378Z,14.56
2022-09-10T04:54:08.219Z,14.55
2022-09-10T04:56:38.664Z,14.53
2022-09-10T04:59:07.270Z,14.51
2022-09-10T05:01:38.415Z,14.51
2022-09-10T05:04:07.539Z,14.50
2022-09-10T05:06:38.349Z,14.51
2022-09-10T05:09:09.151Z,14.52
2022-09-10T05:11:37.602Z,14.51
2022-09-10T05:14:07.077Z,14.51
2022-09-10T05:16:36.746Z,14.50
2022-09-10T05:19:05.683Z,14.50
2022-09-10T05:21:37.999Z,14.50
2022-09-10T05:24:07.305Z,14.50
2022-09-10T05:26:35.894Z,14.50
2022-09-10T05:29:04.571Z,14.50
2022-09-10T05:31:33.264Z,14.49
2022-09-10T05:34:01.921Z,14.49
2022-09-10T05:36:32.109Z,14.49
2022-09-10T05:39:02.637Z,14.49
2022-09-10T05:41:32.455Z,14.50
2022-09-10T05:44:02.459Z,14.51
2022-09-10T05:46:32.408Z,14.52
2022-09-10T05:49:07.985Z,14.54
2022-09-10T05:51:36.487Z,14.55
2022-09-10T05:54:06.001Z,14.56
2022-09-10T05:56:34.654Z,14.56
2022-09-10T05:59:03.826Z,14.57
2022-09-10T06:01:33.371Z,14.57
2022-09-10T06:04:04.090Z,14.57
2022-09-10T06:06:32.944Z,14.57
2022-09-10T06:09:09.009Z,14.58
2022-09-10T06:11:56.849Z,14.59
2022-09-10T06:14:25.840Z,14.58
2022-09-10T06:16:55.235Z,14.59
2022-09-10T06:19:24.832Z,14.57
2022-09-10T06:21:53.318Z,14.55
2022-09-10T06:24:23.060Z,14.55
2022-09-10T06:26:53.884Z,14.54
2022-09-10T06:29:24.136Z,14.52
2022-09-10T06:31:52.993Z,14.51
2022-09-10T06:34:22.023Z,14.49
2022-09-10T06:36:50.935Z,14.48
2022-09-10T06:39:19.719Z,14.49
2022-09-10T06:41:54.941Z,14.50
2022-09-10T06:44:59.542Z,14.49
2022-09-10T06:48:34.753Z,14.48
2022-09-10T06:50:52.489Z,14.47
2022-09-10T06:53:21.895Z,14.46
2022-09-10T06:55:52.281Z,14.47
2022-09-10T06:58:23.937Z,14.48
2022-09-10T07:00:53.288Z,14.46
2022-09-10T07:03:23.549Z,14.43
2022-09-10T07:05:55.048Z,14.45
2022-09-10T07:08:26.553Z,14.50
2022-09-10T07:11:00.847Z,14.52
2022-09-10T07:13:29.331Z,14.54
2022-09-10T07:15:57.936Z,14.54
2022-09-10T07:18:28.149Z,14.54
2022-09-10T07:21:07.680Z,14.51
2022-09-10T07:23:36.103Z,14.49
2022-09-10T07:26:54.498Z,14.50
2022-09-10T07:29:23.418Z,14.51
2022-09-10T07:31:53.508Z,14.52
2022-09-10T07:34:24.934Z,14.52
2022-09-10T07:36:56.306Z,14.52
2022-09-10T07:39:26.317Z,14.52
2022-09-10T07:41:57.370Z,14.53
2022-09-10T07:44:29.257Z,14.55
2022-09-10T07:47:02.829Z,14.56
2022-09-10T07:49:32.010Z,14.58
2022-09-10T07:52:00.714Z,14.58
2022-09-10T07:54:37.513Z,14.60
2022-09-10T07:57:06.492Z,14.62
2022-09-10T07:59:36.605Z,14.64
2022-09-10T08:02:06.017Z,14.66
2022-09-10T08:04:37.137Z,14.69
2022-09-10T08:07:08.566Z,14.72
2022-09-10T08:09:38.862Z,14.74
2022-09-10T08:12:09.375Z,14.74
2022-09-10T08:14:37.783Z,14.77
2022-09-10T08:17:07.193Z,14.81
2022-09-10T08:19:39.697Z,14.84
2022-09-10T08:22:12.809Z,14.85
2022-09-10T08:24:47.287Z,14.88
2022-09-10T08:27:16.836Z,14.90
2022-09-10T08:29:45.666Z,14.89
2022-09-10T08:32:15.269Z,14.91
2022-09-10T08:34:43.889Z,14.93
2022-09-10T08:37:13.982Z,15.00
2022-09-10T08:39:42.641Z,15.06
2022-09-10T08:42:19.159Z,15.10
2022-09-10T08:44:53.442Z,15.13
2022-09-10T08:47:32.864Z,15.15
2022-09-10T08:50:13.091Z,15.18
2022-09-10T08:52:48.352Z,15.26
2022-09-10T08:55:29.337Z,15.34
2022-09-10T08:58:03.314Z,15.40
2022-09-10T09:00:37.381Z,15.45
2022-09-10T09:03:16.580Z,15.47
2022-09-10T09:05:49.261Z,15.44
2022-09-10T09:08:21.495Z,15.42
2022-09-10T09:10:55.363Z,15.42
2022-09-10T09:13:45.140Z,15.43
2022-09-10T09:16:28.478Z,15.45
2022-09-10T09:19:09.969Z,15.45
2022-09-10T09:21:50.291Z,15.43
2022-09-10T09:24:24.243Z,15.43
2022-09-10T09:27:09.697Z,15.43
2022-09-10T09:29:48.060Z,15.38
2022-09-10T09:32:20.329Z,15.36
2022-09-10T09:34:52.035Z,15.36
2022-09-10T09:37:23.808Z,15.36
2022-09-10T09:40:03.566Z,15.36
2022-09-10T09:42:43.752Z,15.34
2022-09-10T09:45:23.606Z,15.34
2022-09-10T09:47:53.862Z,15.32
2022-09-10T09:50:22.588Z,15.31
2022-09-10T09:52:55.687Z,15.29
2022-09-10T09:55:32.912Z,15.28
2022-09-10T09:58:29.131Z,15.26
2022-09-10T10:01:12.446Z,15.26
2022-09-10T10:03:48.037Z,15.23
2022-09-10T10:06:19.012Z,15.21
2022-09-10T10:08:55.636Z,15.20
2022-09-10T10:11:40.370Z,15.18
2022-09-10T10:14:40.839Z,15.16
2022-09-10T10:17:29.732Z,15.13
2022-09-10T10:20:06.697Z,15.08
2022-09-10T10:22:36.422Z,15.04
2022-09-10T10:25:26.770Z,15.00
2022-09-10T10:27:55.933Z,14.93
2022-09-10T10:30:25.056Z,14.89
2022-09-10T10:32:55.745Z,14.87
2022-09-10T10:35:40.725Z,14.87
2022-09-10T10:38:31.568Z,14.86
2022-09-10T10:41:39.885Z,14.85
2022-09-10T10:44:33.489Z,14.82
2022-09-10T10:47:18.165Z,14.82
2022-09-10T10:49:56.861Z,14.82
2022-09-10T10:52:35.959Z,14.80
2022-09-10T10:56:06.469Z,14.77
2022-09-10T11:09:41.098Z,15.03
2022-09-10T11:12:18.013Z,15.05
2022-09-10T11:14:58.806Z,15.03
2022-09-10T11:17:39.909Z,15.01
2022-09-10T11:20:28.357Z,14.98
2022-09-10T11:23:14.847Z,14.97
2022-09-10T11:25:58.958Z,14.96
2022-09-10T11:28:37.495Z,14.95
2022-09-10T11:31:16.324Z,14.94
2022-09-10T11:33:59.243Z,14.95
2022-09-10T11:36:39.393Z,14.93
2022-09-10T11:39:19.604Z,14.91
2022-09-10T11:41:55.820Z,14.89
2022-09-10T11:44:42.750Z,14.87
2022-09-10T11:47:20.533Z,14.85
2022-09-10T11:50:01.245Z,14.84
2022-09-10T11:52:36.026Z,14.83
2022-09-10T11:55:14.785Z,14.85
2022-09-10T11:58:04.740Z,14.86
2022-09-10T12:00:49.376Z,14.85
2022-09-10T12:03:41.233Z,14.83
2022-09-10T12:06:22.367Z,14.83
2022-09-10T12:09:07.590Z,14.84
2022-09-10T12:11:51.365Z,14.86
2022-09-10T12:14:23.438Z,14.88
2022-09-10T12:16:59.392Z,14.89
2022-09-10T12:19:36.703Z,14.91
2022-09-10T12:22:18.338Z,14.91
2022-09-10T12:24:56.726Z,14.90
2022-09-10T12:27:47.221Z,14.89
2022-09-10T12:31:02.952Z,14.89
2022-09-10T12:34:16.452Z,14.88
2022-09-10T12:37:24.200Z,14.87
2022-09-10T12:40:32.173Z,14.88
2022-09-10T12:43:40.313Z,14.89
2022-09-10T12:46:24.470Z,14.89
2022-09-10T12:49:12.989Z,14.90
2022-09-10T12:51:58.641Z,14.93
2022-09-10T12:54:55.865Z,14.95
2022-09-10T12:57:38.536Z,14.96
2022-09-10T13:00:23.238Z,14.98
2022-09-10T13:02:59.242Z,15.02
2022-09-10T13:05:36.730Z,15.05
2022-09-10T13:08:20.553Z,15.08
2022-09-10T13:11:15.859Z,15.11
2022-09-10T13:13:54.822Z,15.14
2022-09-10T13:16:41.979Z,15.15
2022-09-10T13:19:50.045Z,15.15
2022-09-10T13:22:58.014Z,15.15
2022-09-10T13:25:44.679Z,15.16
2022-09-10T13:28:52.308Z,15.16
2022-09-10T13:31:28.594Z,15.17
2022-09-10T13:34:47.272Z,15.18
2022-09-10T13:37:37.357Z,15.18
2022-09-10T13:40:34.859Z,15.17
2022-09-10T13:43:19.167Z,15.16
2022-09-10T13:45:55.251Z,15.16
2022-09-10T13:48:30.851Z,15.14
2022-09-10T13:51:16.438Z,15.14
2022-09-10T13:53:50.129Z,15.12
2022-09-10T13:56:26.190Z,15.10
2022-09-10T13:59:02.183Z,15.07
2022-09-10T14:01:56.841Z,15.04
2022-09-10T14:04:31.962Z,15.03
2022-09-10T14:07:13.178Z,15.02
2022-09-10T14:09:47.106Z,14.99
2022-09-10T14:12:26.227Z,14.97
2022-09-10T14:15:01.541Z,14.95
2022-09-10T14:17:39.025Z,14.93
2022-09-10T14:20:23.610Z,14.91
2022-09-10T14:23:02.489Z,14.90
2022-09-10T14:25:36.915Z,14.91
2022-09-10T14:28:24.253Z,14.90
2022-09-10T14:31:21.657Z,14.84
2022-09-10T14:33:53.915Z,14.81
2022-09-10T14:36:34.826Z,14.80
2022-09-10T14:39:16.419Z,14.80
2022-09-10T14:41:49.465Z,14.83
2022-09-10T14:44:31.514Z,14.84
2022-09-10T14:47:14.581Z,14.86
2022-09-10T14:49:47.231Z,14.87
2022-09-10T14:52:20.207Z,14.88
2022-09-10T14:54:52.322Z,14.89
2022-09-10T14:57:24.337Z,14.91
2022-09-10T14:59:57.837Z,14.95
2022-09-10T15:02:30.949Z,14.96
2022-09-10T15:05:07.787Z,14.97
2022-09-10T15:07:43.058Z,14.95
2022-09-10T15:10:15.385Z,14.93
2022-09-10T15:12:52.185Z,14.92
2022-09-10T15:15:25.083Z,14.90
2022-09-10T15:17:57.966Z,14.93
2022-09-10T15:20:33.387Z,14.96
2022-09-10T15:23:05.287Z,14.96
2022-09-10T15:25:41.594Z,14.95
2022-09-10T15:28:13.639Z,14.95
2022-09-10T15:30:45.580Z,14.93
2022-09-10T15:33:17.982Z,14.92
2022-09-10T15:35:50.048Z,14.91
2022-09-10T15:38:22.258Z,14.92
2022-09-10T15:40:56.530Z,14.92
2022-09-10T15:43:28.549Z,14.90
2022-09-10T15:46:04.189Z,14.88
2022-09-10T15:48:36.891Z,14.89
2022-09-10T15:51:13.897Z,14.89
2022-09-10T15:53:49.009Z,14.87
2022-09-10T15:56:24.359Z,14.87
2022-09-10T15:58:57.988Z,14.88
2022-09-10T16:01:36.726Z,14.86
2022-09-10T16:04:09.908Z,14.84
2022-09-10T16:06:42.144Z,14.80
2022-09-10T16:09:15.367Z,14.76
2022-09-10T16:11:48.280Z,14.73
2022-09-10T16:14:20.893Z,14.72
2022-09-10T16:16:56.323Z,14.71
2022-09-10T16:19:29.569Z,14.68
2022-09-10T16:22:01.433Z,14.66
2022-09-10T16:24:33.533Z,14.63
2022-09-10T16:27:05.854Z,14.62
2022-09-10T16:29:40.091Z,14.62
2022-09-10T16:32:12.921Z,14.61
2022-09-10T16:34:45.082Z,14.59
2022-09-10T16:37:17.421Z,14.57
2022-09-10T16:39:49.337Z,14.56
2022-09-10T16:42:21.182Z,14.55
2022-09-10T16:44:52.969Z,14.54
2022-09-10T16:47:25.528Z,14.54
2022-09-10T16:49:57.401Z,14.53
2022-09-10T16:52:30.919Z,14.53
2022-09-10T16:55:04.834Z,14.52
2022-09-10T16:57:36.863Z,14.50
2022-09-10T17:00:11.083Z,14.47
2022-09-10T17:02:43.470Z,14.45
2022-09-10T17:05:15.674Z,14.44
2022-09-10T17:07:49.298Z,14.43
2022-09-10T17:10:23.513Z,14.43
2022-09-10T17:12:55.730Z,14.41
2022-09-10T17:15:30.206Z,14.40
2022-09-10T17:18:02.126Z,14.41
2022-09-10T17:20:35.672Z,14.39
2022-09-10T17:23:09.224Z,14.37
2022-09-10T17:25:41.172Z,14.36
2022-09-10T17:28:16.287Z,14.35
2022-09-10T17:30:50.986Z,14.34
2022-09-10T17:33:29.443Z,14.33
2022-09-10T17:36:03.573Z,14.32
2022-09-10T17:38:36.879Z,14.31
2022-09-10T17:41:14.628Z,14.31
2022-09-10T17:43:47.167Z,14.30
2022-09-10T17:46:23.482Z,14.30
2022-09-10T17:48:56.658Z,14.30
2022-09-10T17:51:30.913Z,14.30
2022-09-10T17:54:05.800Z,14.27
2022-09-10T17:56:43.652Z,14.31
2022-09-10T17:59:16.836Z,14.31
2022-09-10T18:01:52.493Z,14.30
2022-09-10T18:04:27.758Z,14.29
2022-09-10T18:07:01.273Z,14.27
2022-09-10T18:09:33.134Z,14.25
2022-09-10T18:12:05.877Z,14.23
2022-09-10T18:14:38.595Z,14.21
2022-09-10T18:17:10.546Z,14.21
2022-09-10T18:19:42.581Z,14.19
2022-09-10T18:22:14.928Z,14.19
2022-09-10T18:24:47.188Z,14.18
2022-09-10T18:27:18.963Z,14.18
2022-09-10T18:29:51.660Z,14.18
2022-09-10T18:32:26.208Z,14.17
2022-09-10T18:34:58.512Z,14.17
2022-09-10T18:37:31.353Z,14.16
2022-09-10T18:40:14.455Z,14.13
2022-09-10T18:42:51.328Z,14.13
2022-09-10T18:45:50.973Z,14.12
2022-09-10T18:48:33.106Z,14.11
2022-09-10T18:51:08.587Z,14.10
2022-09-10T18:53:45.885Z,14.09
2022-09-10T18:56:21.360Z,14.07
2022-09-10T18:58:55.778Z,14.05
2022-09-10T19:02:30.489Z,14.03
2022-09-10T19:06:08.250Z,14.03
2022-09-10T19:08:44.964Z,14.00
2022-09-10T19:11:19.042Z,13.99
2022-09-10T19:13:52.963Z,13.99
2022-09-10T19:16:27.903Z,13.99
2022-09-10T19:19:01.520Z,14.00
2022-09-10T19:21:36.782Z,14.00
2022-09-10T19:24:54.472Z,14.00
2022-09-10T19:27:41.316Z,13.99
2022-09-10T19:30:15.430Z,13.97
2022-09-10T19:32:47.394Z,13.93
2022-09-10T19:35:20.121Z,13.96
2022-09-10T19:38:36.764Z,13.97
2022-09-10T19:41:18.929Z,13.96
2022-09-10T19:43:52.522Z,13.97
2022-09-10T19:46:28.408Z,13.97
2022-09-10T19:49:01.539Z,13.97
2022-09-10T19:51:35.936Z,13.96
2022-09-10T19:54:12.050Z,13.96
2022-09-10T19:56:44.424Z,13.95
2022-09-10T19:59:16.287Z,13.95
2022-09-10T20:01:48.815Z,13.95
2022-09-10T20:04:20.748Z,13.95
2022-09-10T20:06:52.925Z,13.94
2022-09-10T20:09:24.741Z,13.94
2022-09-10T20:11:57.177Z,13.93
2022-09-10T20:14:29.359Z,13.94
2022-09-10T20:17:01.725Z,13.93
2022-09-10T20:19:33.590Z,13.94
2022-09-10T20:22:05.591Z,13.94
2022-09-10T20:24:37.913Z,13.94
2022-09-10T20:27:10.146Z,13.93
2022-09-10T20:29:43.347Z,13.92
2022-09-10T20:32:15.306Z,13.90
2022-09-10T20:34:47.434Z,13.90
2022-09-10T20:37:19.624Z,13.89
2022-09-10T20:39:51.952Z,13.88
2022-09-10T20:42:25.485Z,13.86
2022-09-10T20:44:57.535Z,13.85
2022-09-10T20:47:31.510Z,13.86
2022-09-10T20:50:03.304Z,13.87
2022-09-10T20:52:35.367Z,13.87
2022-09-10T20:55:08.786Z,13.88
2022-09-10T20:57:40.537Z,13.87
2022-09-10T21:00:15.247Z,13.87
2022-09-10T21:02:48.146Z,13.87
2022-09-10T21:05:21.089Z,13.86
2022-09-10T21:07:53.054Z,13.86
2022-09-10T21:10:24.876Z,13.84
2022-09-10T21:13:05.178Z,13.83
2022-09-10T21:15:38.119Z,13.82
2022-09-10T21:18:10.458Z,13.80
2022-09-10T21:20:42.430Z,13.78
2022-09-10T21:23:14.196Z,13.77
2022-09-10T21:25:53.639Z,13.77
2022-09-10T21:28:27.225Z,13.76
2022-09-10T21:31:05.158Z,13.74
2022-09-10T21:33:37.910Z,13.73
2022-09-10T21:36:12.401Z,13.74
2022-09-10T21:38:47.422Z,13.74
2022-09-10T21:41:24.339Z,13.74
2022-09-10T21:43:56.295Z,13.75
2022-09-10T21:46:29.529Z,13.75
2022-09-10T21:49:02.351Z,13.74
2022-09-10T21:51:34.500Z,13.73
2022-09-10T21:54:06.717Z,13.73
2022-09-10T21:56:38.463Z,13.73
2022-09-10T21:59:13.073Z,13.73
2022-09-10T22:01:46.875Z,13.75
2022-09-10T22:04:22.776Z,13.75
2022-09-10T22:06:56.725Z,13.75
2022-09-10T22:09:28.485Z,13.75
2022-09-10T22:12:00.325Z,13.76
2022-09-10T22:14:33.313Z,13.76
2022-09-10T22:17:05.562Z,13.76
2022-09-10T22:19:37.680Z,13.76
2022-09-10T22:22:11.290Z,13.76
2022-09-10T22:24:43.100Z,13.76
2022-09-10T22:27:14.984Z,13.76
2022-09-10T22:29:46.925Z,13.77
2022-09-10T22:32:19.633Z,13.78
2022-09-10T22:34:51.818Z,13.78
2022-09-10T22:37:23.551Z,13.76
2022-09-10T22:39:55.350Z,13.74
2022-09-10T22:42:27.321Z,13.73
2022-09-10T22:45:00.920Z,13.73
2022-09-10T22:47:33.053Z,13.73
2022-09-10T22:50:05.368Z,13.73
2022-09-10T22:52:38.363Z,13.73
2022-09-10T22:55:12.578Z,13.72
2022-09-10T22:57:45.291Z,13.69
2022-09-10T23:00:17.731Z,13.68
2022-09-10T23:02:49.593Z,13.67
2022-09-10T23:05:22.068Z,13.65
2022-09-10T23:07:53.904Z,13.65
2022-09-10T23:10:26.461Z,13.66
2022-09-10T23:12:59.446Z,13.66
2022-09-10T23:15:34.730Z,13.65
2022-09-10T23:18:06.655Z,13.65
2022-09-10T23:20:38.555Z,13.63
2022-09-10T23:23:10.580Z,13.63
2022-09-10T23:25:43.571Z,13.59
2022-09-10T23:28:15.421Z,13.59
2022-09-10T23:30:47.176Z,13.56
2022-09-10T23:33:19.352Z,13.53
2022-09-10T23:35:53.568Z,13.53
2022-09-10T23:38:26.060Z,13.52
2022-09-10T23:40:59.255Z,13.49
2022-09-10T23:43:31.466Z,13.49
2022-09-10T23:46:03.887Z,13.51
2022-09-10T23:48:36.035Z,13.51
2022-09-10T23:51:08.983Z,13.52
2022-09-10T23:53:41.013Z,13.52
2022-09-10T23:56:13.203Z,13.53
2022-09-10T23:58:45.255Z,13.55
